sensor_id;sensor_type;location;lat;lon;timestamp;pressure;altitude;pressure_sealevel;temperature;humidity
5284;BME280;15377;48.540;9.268;2023-04-21T00:01:13;97063.72;;;5.30;100.00
5284;BME280;15377;48.540;9.268;2023-04-21T00:03:39;97057.00;;;5.22;100.00
5284;BME280;15377;48.540;9.268;2023-04-21T00:06:06;97062.47;;;5.22;100.00
5284;BME280;15377;48.540;9.268;2023-04-21T00:08:32;97062.59;;;5.18;100.00
5284;BME280;15377;48.540;9.268;2023-04-21T00:10:58;97059.66;;;5.13;100.00
5284;BME280;15377;48.540;9.268;2023-04-21T00:13:23;97055.97;;;5.07;100.00
5284;BME280;15377;48.540;9.268;2023-04-21T00:15:49;97051.44;;;5.04;100.00
5284;BME280;15377;48.540;9.268;2023-04-21T00:18:15;97057.00;;;5.00;100.00
5284;BME280;15377;48.540;9.268;2023-04-21T00:20:42;97049.53;;;4.92;100.00
5284;BME280;15377;48.540;9.268;2023-04-21T00:23:09;97058.66;;;4.98;100.00
5284;BME280;15377;48.540;9.268;2023-04-21T00:25:38;97050.28;;;4.92;100.00
5284;BME280;15377;48.540;9.268;2023-04-21T00:28:03;97044.19;;;4.88;100.00
5284;BME280;15377;48.540;9.268;2023-04-21T00:30:28;97023.50;;;4.78;100.00
5284;BME280;15377;48.540;9.268;2023-04-21T00:32:54;97026.81;;;4.73;100.00
5284;BME280;15377;48.540;9.268;2023-04-21T00:35:20;97036.56;;;4.62;100.00
5284;BME280;15377;48.540;9.268;2023-04-21T00:37:45;97042.00;;;4.62;100.00
5284;BME280;15377;48.540;9.268;2023-04-21T00:40:12;97038.94;;;4.60;100.00
5284;BME280;15377;48.540;9.268;2023-04-21T00:42:37;97031.59;;;4.48;100.00
5284;BME280;15377;48.540;9.268;2023-04-21T00:45:03;97030.41;;;4.36;100.00
5284;BME280;15377;48.540;9.268;2023-04-21T00:47:29;97038.06;;;4.29;100.00
5284;BME280;15377;48.540;9.268;2023-04-21T00:49:56;97041.03;;;4.22;100.00
5284;BME280;15377;48.540;9.268;2023-04-21T00:52:22;97034.38;;;4.10;100.00
5284;BME280;15377;48.540;9.268;2023-04-21T00:54:47;97028.41;;;4.03;100.00
5284;BME280;15377;48.540;9.268;2023-04-21T00:57:13;97031.78;;;3.94;100.00
5284;BME280;15377;48.540;9.268;2023-04-21T00:59:39;97021.25;;;3.84;100.00
5284;BME280;15377;48.540;9.268;2023-04-21T01:02:04;97012.19;;;3.74;100.00
5284;BME280;15377;48.540;9.268;2023-04-21T01:04:30;97012.00;;;3.69;100.00
5284;BME280;15377;48.540;9.268;2023-04-21T01:07:04;97014.03;;;3.65;100.00
5284;BME280;15377;48.540;9.268;2023-04-21T01:09:30;96999.03;;;3.48;100.00
5284;BME280;15377;48.540;9.268;2023-04-21T01:14:26;97010.00;;;3.69;100.00
5284;BME280;15377;48.540;9.268;2023-04-21T01:16:51;97000.34;;;3.56;100.00
5284;BME280;15377;48.540;9.268;2023-04-21T01:19:17;96989.34;;;3.35;100.00
5284;BME280;15377;48.540;9.268;2023-04-21T01:21:43;97002.84;;;3.50;100.00
5284;BME280;15377;48.540;9.268;2023-04-21T01:24:08;96992.16;;;3.43;100.00
5284;BME280;15377;48.540;9.268;2023-04-21T01:26:34;96996.31;;;3.48;100.00
5284;BME280;15377;48.540;9.268;2023-04-21T01:28:59;97013.94;;;3.56;100.00
5284;BME280;15377;48.540;9.268;2023-04-21T01:31:24;97012.09;;;3.53;100.00
5284;BME280;15377;48.540;9.268;2023-04-21T01:33:51;97004.34;;;3.51;100.00
5284;BME280;15377;48.540;9.268;2023-04-21T01:36:16;97018.38;;;3.50;100.00
5284;BME280;15377;48.540;9.268;2023-04-21T01:38:42;96994.00;;;3.34;100.00
5284;BME280;15377;48.540;9.268;2023-04-21T01:41:08;97007.75;;;3.43;100.00
5284;BME280;15377;48.540;9.268;2023-04-21T01:43:35;97012.50;;;3.39;100.00
5284;BME280;15377;48.540;9.268;2023-04-21T01:46:02;96994.66;;;3.13;100.00
5284;BME280;15377;48.540;9.268;2023-04-21T01:48:27;97013.69;;;3.13;100.00
5284;BME280;15377;48.540;9.268;2023-04-21T01:50:53;97010.13;;;2.88;100.00
5284;BME280;15377;48.540;9.268;2023-04-21T01:53:18;97009.69;;;2.89;100.00
5284;BME280;15377;48.540;9.268;2023-04-21T01:55:43;97011.69;;;3.01;100.00
5284;BME280;15377;48.540;9.268;2023-04-21T01:58:09;97021.09;;;2.84;100.00
5284;BME280;15377;48.540;9.268;2023-04-21T02:00:34;97009.94;;;2.66;100.00
5284;BME280;15377;48.540;9.268;2023-04-21T02:02:59;97013.47;;;2.51;100.00
5284;BME280;15377;48.540;9.268;2023-04-21T02:05:25;96996.31;;;2.25;100.00
5284;BME280;15377;48.540;9.268;2023-04-21T02:07:50;96997.22;;;2.19;100.00
5284;BME280;15377;48.540;9.268;2023-04-21T02:10:16;97013.16;;;2.33;100.00
5284;BME280;15377;48.540;9.268;2023-04-21T02:12:41;97029.00;;;2.50;100.00
5284;BME280;15377;48.540;9.268;2023-04-21T02:15:07;97018.28;;;2.59;100.00
5284;BME280;15377;48.540;9.268;2023-04-21T02:17:32;97020.13;;;2.62;100.00
5284;BME280;15377;48.540;9.268;2023-04-21T02:19:57;97032.72;;;2.56;100.00
5284;BME280;15377;48.540;9.268;2023-04-21T02:22:23;97021.63;;;2.35;100.00
5284;BME280;15377;48.540;9.268;2023-04-21T02:24:49;97020.75;;;2.09;100.00
5284;BME280;15377;48.540;9.268;2023-04-21T02:27:14;97025.50;;;1.89;100.00
5284;BME280;15377;48.540;9.268;2023-04-21T02:29:40;97033.38;;;1.84;100.00
5284;BME280;15377;48.540;9.268;2023-04-21T02:32:05;97039.13;;;1.86;100.00
5284;BME280;15377;48.540;9.268;2023-04-21T02:34:31;97043.13;;;2.13;100.00
5284;BME280;15377;48.540;9.268;2023-04-21T02:36:57;97048.56;;;2.13;100.00
5284;BME280;15377;48.540;9.268;2023-04-21T02:39:24;97034.41;;;2.06;100.00
5284;BME280;15377;48.540;9.268;2023-04-21T02:41:49;97025.66;;;1.98;100.00
5284;BME280;15377;48.540;9.268;2023-04-21T02:44:15;97023.72;;;1.83;100.00
5284;BME280;15377;48.540;9.268;2023-04-21T02:46:41;97013.13;;;1.88;100.00
5284;BME280;15377;48.540;9.268;2023-04-21T02:49:06;97023.63;;;2.02;100.00
5284;BME280;15377;48.540;9.268;2023-04-21T02:51:32;97012.94;;;2.11;100.00
5284;BME280;15377;48.540;9.268;2023-04-21T02:53:57;96994.28;;;2.13;100.00
5284;BME280;15377;48.540;9.268;2023-04-21T02:56:22;97009.59;;;2.20;100.00
5284;BME280;15377;48.540;9.268;2023-04-21T02:58:48;97009.38;;;2.14;100.00
5284;BME280;15377;48.540;9.268;2023-04-21T03:01:13;97012.31;;;2.20;100.00
5284;BME280;15377;48.540;9.268;2023-04-21T03:03:38;97009.34;;;2.30;100.00
5284;BME280;15377;48.540;9.268;2023-04-21T03:06:04;97021.81;;;2.28;100.00
5284;BME280;15377;48.540;9.268;2023-04-21T03:08:30;97016.41;;;2.12;100.00
5284;BME280;15377;48.540;9.268;2023-04-21T03:10:56;97011.59;;;2.03;100.00
5284;BME280;15377;48.540;9.268;2023-04-21T03:13:21;97014.47;;;1.96;100.00
5284;BME280;15377;48.540;9.268;2023-04-21T03:15:48;97015.50;;;1.86;100.00
5284;BME280;15377;48.540;9.268;2023-04-21T03:18:13;97003.53;;;1.84;100.00
5284;BME280;15377;48.540;9.268;2023-04-21T03:20:39;97018.44;;;1.76;100.00
5284;BME280;15377;48.540;9.268;2023-04-21T03:23:04;97026.19;;;1.93;100.00
5284;BME280;15377;48.540;9.268;2023-04-21T03:25:29;97018.78;;;1.94;100.00
5284;BME280;15377;48.540;9.268;2023-04-21T03:27:55;97011.50;;;1.91;100.00
5284;BME280;15377;48.540;9.268;2023-04-21T03:30:22;97015.50;;;2.02;100.00
5284;BME280;15377;48.540;9.268;2023-04-21T03:32:48;97028.38;;;2.14;100.00
5284;BME280;15377;48.540;9.268;2023-04-21T03:35:14;97005.13;;;2.13;100.00
5284;BME280;15377;48.540;9.268;2023-04-21T03:37:40;97014.53;;;2.25;100.00
5284;BME280;15377;48.540;9.268;2023-04-21T03:40:06;97027.16;;;2.31;100.00
5284;BME280;15377;48.540;9.268;2023-04-21T03:42:31;97020.47;;;2.20;100.00
5284;BME280;15377;48.540;9.268;2023-04-21T03:45:03;97007.69;;;2.04;100.00
5284;BME280;15377;48.540;9.268;2023-04-21T03:47:29;97031.41;;;2.16;100.00
5284;BME280;15377;48.540;9.268;2023-04-21T03:49:55;97016.69;;;2.17;100.00
5284;BME280;15377;48.540;9.268;2023-04-21T03:52:20;97033.63;;;2.21;100.00
5284;BME280;15377;48.540;9.268;2023-04-21T03:54:46;97024.53;;;2.12;100.00
5284;BME280;15377;48.540;9.268;2023-04-21T03:57:11;97022.94;;;2.14;100.00
5284;BME280;15377;48.540;9.268;2023-04-21T03:59:37;97009.03;;;2.12;100.00
5284;BME280;15377;48.540;9.268;2023-04-21T04:02:02;97025.31;;;2.12;100.00
5284;BME280;15377;48.540;9.268;2023-04-21T04:04:27;97025.00;;;2.10;100.00
5284;BME280;15377;48.540;9.268;2023-04-21T04:06:53;97035.47;;;2.08;100.00
5284;BME280;15377;48.540;9.268;2023-04-21T04:09:18;97030.25;;;2.17;100.00
5284;BME280;15377;48.540;9.268;2023-04-21T04:11:43;97030.56;;;2.19;100.00
5284;BME280;15377;48.540;9.268;2023-04-21T04:14:09;97020.53;;;2.16;100.00
5284;BME280;15377;48.540;9.268;2023-04-21T04:16:34;97022.34;;;2.07;100.00
5284;BME280;15377;48.540;9.268;2023-04-21T04:19:00;97018.53;;;2.04;100.00
5284;BME280;15377;48.540;9.268;2023-04-21T04:21:25;97009.13;;;2.09;100.00
5284;BME280;15377;48.540;9.268;2023-04-21T04:23:52;97021.25;;;2.20;100.00
5284;BME280;15377;48.540;9.268;2023-04-21T04:26:18;97021.06;;;2.27;100.00
5284;BME280;15377;48.540;9.268;2023-04-21T04:28:44;97028.16;;;2.37;100.00
5284;BME280;15377;48.540;9.268;2023-04-21T04:31:10;97024.94;;;2.42;100.00
5284;BME280;15377;48.540;9.268;2023-04-21T04:33:39;97018.97;;;2.47;100.00
5284;BME280;15377;48.540;9.268;2023-04-21T04:36:06;97020.41;;;2.52;100.00
5284;BME280;15377;48.540;9.268;2023-04-21T04:38:31;97005.41;;;2.47;100.00
5284;BME280;15377;48.540;9.268;2023-04-21T04:40:58;97007.38;;;2.47;100.00
5284;BME280;15377;48.540;9.268;2023-04-21T04:43:26;97010.50;;;2.45;100.00
5284;BME280;15377;48.540;9.268;2023-04-21T04:45:51;97006.69;;;2.43;100.00
5284;BME280;15377;48.540;9.268;2023-04-21T04:48:17;97011.00;;;2.56;100.00
5284;BME280;15377;48.540;9.268;2023-04-21T04:50:43;97015.91;;;2.61;100.00
5284;BME280;15377;48.540;9.268;2023-04-21T04:53:08;97010.91;;;2.60;100.00
5284;BME280;15377;48.540;9.268;2023-04-21T04:55:33;97039.50;;;2.64;100.00
5284;BME280;15377;48.540;9.268;2023-04-21T04:57:59;97038.53;;;2.71;100.00
5284;BME280;15377;48.540;9.268;2023-04-21T05:00:26;97055.16;;;2.73;100.00
5284;BME280;15377;48.540;9.268;2023-04-21T05:02:53;97061.28;;;2.77;100.00
5284;BME280;15377;48.540;9.268;2023-04-21T05:05:18;97054.94;;;2.67;100.00
5284;BME280;15377;48.540;9.268;2023-04-21T05:07:46;97057.97;;;2.69;100.00
5284;BME280;15377;48.540;9.268;2023-04-21T05:10:11;97048.81;;;2.63;100.00
5284;BME280;15377;48.540;9.268;2023-04-21T05:12:36;97051.88;;;2.65;100.00
5284;BME280;15377;48.540;9.268;2023-04-21T05:15:02;97048.81;;;2.63;100.00
5284;BME280;15377;48.540;9.268;2023-04-21T05:17:27;97040.34;;;2.61;100.00
5284;BME280;15377;48.540;9.268;2023-04-21T05:19:55;97047.47;;;2.55;100.00
5284;BME280;15377;48.540;9.268;2023-04-21T05:22:20;97060.53;;;2.60;100.00
5284;BME280;15377;48.540;9.268;2023-04-21T05:24:45;97051.66;;;2.60;100.00
5284;BME280;15377;48.540;9.268;2023-04-21T05:27:11;97065.28;;;2.72;100.00
5284;BME280;15377;48.540;9.268;2023-04-21T05:29:36;97047.25;;;2.78;100.00
5284;BME280;15377;48.540;9.268;2023-04-21T05:32:01;97044.34;;;2.85;100.00
5284;BME280;15377;48.540;9.268;2023-04-21T05:34:27;97041.25;;;2.99;100.00
5284;BME280;15377;48.540;9.268;2023-04-21T05:36:52;97052.94;;;3.12;100.00
5284;BME280;15377;48.540;9.268;2023-04-21T05:39:17;97052.09;;;3.28;100.00
5284;BME280;15377;48.540;9.268;2023-04-21T05:41:43;97041.34;;;3.37;100.00
5284;BME280;15377;48.540;9.268;2023-04-21T05:44:08;97042.34;;;3.55;100.00
5284;BME280;15377;48.540;9.268;2023-04-21T05:46:33;97036.69;;;3.62;100.00
5284;BME280;15377;48.540;9.268;2023-04-21T05:48:59;97032.66;;;3.79;100.00
5284;BME280;15377;48.540;9.268;2023-04-21T05:51:26;97010.13;;;3.91;100.00
5284;BME280;15377;48.540;9.268;2023-04-21T05:53:52;97015.34;;;3.98;100.00
5284;BME280;15377;48.540;9.268;2023-04-21T05:56:17;97022.09;;;4.06;100.00
5284;BME280;15377;48.540;9.268;2023-04-21T05:58:42;96977.44;;;4.03;100.00
5284;BME280;15377;48.540;9.268;2023-04-21T06:01:08;96985.91;;;4.18;100.00
5284;BME280;15377;48.540;9.268;2023-04-21T06:03:33;97017.47;;;4.28;100.00
5284;BME280;15377;48.540;9.268;2023-04-21T06:06:00;97046.25;;;4.29;100.00
5284;BME280;15377;48.540;9.268;2023-04-21T06:08:26;97048.84;;;4.20;100.00
5284;BME280;15377;48.540;9.268;2023-04-21T06:10:52;97055.50;;;4.19;100.00
5284;BME280;15377;48.540;9.268;2023-04-21T06:13:17;97041.13;;;4.18;100.00
5284;BME280;15377;48.540;9.268;2023-04-21T06:15:43;97037.81;;;4.36;100.00
5284;BME280;15377;48.540;9.268;2023-04-21T06:18:08;97039.69;;;4.39;100.00
5284;BME280;15377;48.540;9.268;2023-04-21T06:20:33;97030.28;;;4.40;100.00
5284;BME280;15377;48.540;9.268;2023-04-21T06:22:59;97032.47;;;4.45;100.00
5284;BME280;15377;48.540;9.268;2023-04-21T06:25:25;97043.75;;;4.56;100.00
5284;BME280;15377;48.540;9.268;2023-04-21T06:27:50;97038.06;;;4.63;100.00
5284;BME280;15377;48.540;9.268;2023-04-21T06:30:15;97039.47;;;4.67;100.00
5284;BME280;15377;48.540;9.268;2023-04-21T06:32:42;97037.66;;;4.64;100.00
5284;BME280;15377;48.540;9.268;2023-04-21T06:35:10;97026.75;;;4.52;100.00
5284;BME280;15377;48.540;9.268;2023-04-21T06:37:35;97032.34;;;4.48;100.00
5284;BME280;15377;48.540;9.268;2023-04-21T06:40:01;97031.34;;;4.55;100.00
5284;BME280;15377;48.540;9.268;2023-04-21T06:42:26;97034.38;;;4.57;100.00
5284;BME280;15377;48.540;9.268;2023-04-21T06:44:51;97038.19;;;4.59;100.00
5284;BME280;15377;48.540;9.268;2023-04-21T06:47:17;97041.66;;;4.60;100.00
5284;BME280;15377;48.540;9.268;2023-04-21T06:49:42;97030.03;;;4.59;100.00
5284;BME280;15377;48.540;9.268;2023-04-21T06:52:07;97041.88;;;4.65;100.00
5284;BME280;15377;48.540;9.268;2023-04-21T06:54:33;97029.47;;;4.64;100.00
5284;BME280;15377;48.540;9.268;2023-04-21T06:56:58;97040.59;;;4.57;100.00
5284;BME280;15377;48.540;9.268;2023-04-21T06:59:24;97041.22;;;4.61;100.00
5284;BME280;15377;48.540;9.268;2023-04-21T07:01:49;97036.78;;;4.55;100.00
5284;BME280;15377;48.540;9.268;2023-04-21T07:04:17;97040.22;;;4.68;100.00
5284;BME280;15377;48.540;9.268;2023-04-21T07:06:42;97035.06;;;4.82;100.00
5284;BME280;15377;48.540;9.268;2023-04-21T07:09:08;97025.06;;;5.01;100.00
5284;BME280;15377;48.540;9.268;2023-04-21T07:11:33;97035.78;;;5.17;100.00
5284;BME280;15377;48.540;9.268;2023-04-21T07:13:58;97020.41;;;5.32;100.00
5284;BME280;15377;48.540;9.268;2023-04-21T07:16:26;97020.00;;;5.73;100.00
5284;BME280;15377;48.540;9.268;2023-04-21T07:18:51;97029.47;;;5.81;100.00
5284;BME280;15377;48.540;9.268;2023-04-21T07:21:17;97034.72;;;6.06;100.00
5284;BME280;15377;48.540;9.268;2023-04-21T07:23:42;97033.53;;;6.16;100.00
5284;BME280;15377;48.540;9.268;2023-04-21T07:26:08;97044.34;;;6.28;100.00
5284;BME280;15377;48.540;9.268;2023-04-21T07:28:33;97059.09;;;6.40;100.00
5284;BME280;15377;48.540;9.268;2023-04-21T07:30:58;97050.63;;;6.65;100.00
5284;BME280;15377;48.540;9.268;2023-04-21T07:33:24;97058.25;;;6.88;100.00
5284;BME280;15377;48.540;9.268;2023-04-21T07:35:49;97061.31;;;6.90;100.00
5284;BME280;15377;48.540;9.268;2023-04-21T07:38:15;97059.16;;;6.67;100.00
5284;BME280;15377;48.540;9.268;2023-04-21T07:40:40;97059.69;;;6.35;100.00
5284;BME280;15377;48.540;9.268;2023-04-21T07:43:05;97060.28;;;6.30;100.00
5284;BME280;15377;48.540;9.268;2023-04-21T07:45:31;97061.09;;;6.00;100.00
5284;BME280;15377;48.540;9.268;2023-04-21T07:47:56;97043.81;;;5.72;100.00
5284;BME280;15377;48.540;9.268;2023-04-21T07:50:23;97043.63;;;5.67;100.00
5284;BME280;15377;48.540;9.268;2023-04-21T07:52:49;97053.66;;;5.70;100.00
5284;BME280;15377;48.540;9.268;2023-04-21T07:55:14;97054.03;;;5.81;100.00
5284;BME280;15377;48.540;9.268;2023-04-21T07:57:39;97043.25;;;6.17;100.00
5284;BME280;15377;48.540;9.268;2023-04-21T08:00:05;97048.81;;;6.53;100.00
5284;BME280;15377;48.540;9.268;2023-04-21T08:02:31;97037.28;;;6.85;100.00
5284;BME280;15377;48.540;9.268;2023-04-21T08:04:56;97049.41;;;7.37;100.00
5284;BME280;15377;48.540;9.268;2023-04-21T08:07:22;97054.88;;;7.97;100.00
5284;BME280;15377;48.540;9.268;2023-04-21T08:09:47;97051.81;;;8.36;100.00
5284;BME280;15377;48.540;9.268;2023-04-21T08:12:13;97056.47;;;8.77;100.00
5284;BME280;15377;48.540;9.268;2023-04-21T08:14:39;97059.34;;;8.97;100.00
5284;BME280;15377;48.540;9.268;2023-04-21T08:17:04;97065.03;;;9.08;100.00
5284;BME280;15377;48.540;9.268;2023-04-21T08:19:30;97056.69;;;9.26;100.00
5284;BME280;15377;48.540;9.268;2023-04-21T08:21:58;97062.81;;;9.21;100.00
5284;BME280;15377;48.540;9.268;2023-04-21T08:24:23;97052.69;;;9.27;100.00
5284;BME280;15377;48.540;9.268;2023-04-21T08:26:49;97048.91;;;9.25;100.00
5284;BME280;15377;48.540;9.268;2023-04-21T08:29:14;97054.13;;;8.99;100.00
5284;BME280;15377;48.540;9.268;2023-04-21T08:31:40;97062.69;;;9.01;100.00
5284;BME280;15377;48.540;9.268;2023-04-21T08:34:06;97058.63;;;9.11;100.00
5284;BME280;15377;48.540;9.268;2023-04-21T08:36:31;97054.66;;;9.12;100.00
5284;BME280;15377;48.540;9.268;2023-04-21T08:38:57;97051.53;;;9.05;100.00
5284;BME280;15377;48.540;9.268;2023-04-21T08:41:23;97040.34;;;9.08;100.00
5284;BME280;15377;48.540;9.268;2023-04-21T08:43:49;97025.31;;;9.18;100.00
5284;BME280;15377;48.540;9.268;2023-04-21T08:46:15;97028.75;;;9.42;100.00
5284;BME280;15377;48.540;9.268;2023-04-21T08:48:40;97020.59;;;9.62;100.00
5284;BME280;15377;48.540;9.268;2023-04-21T08:51:07;97018.13;;;9.79;100.00
5284;BME280;15377;48.540;9.268;2023-04-21T08:53:37;97011.88;;;9.93;100.00
5284;BME280;15377;48.540;9.268;2023-04-21T08:56:05;97008.94;;;9.96;100.00
5284;BME280;15377;48.540;9.268;2023-04-21T08:58:31;97014.13;;;9.94;100.00
5284;BME280;15377;48.540;9.268;2023-04-21T09:00:56;97012.72;;;9.84;100.00
5284;BME280;15377;48.540;9.268;2023-04-21T09:03:23;97013.78;;;9.87;100.00
5284;BME280;15377;48.540;9.268;2023-04-21T09:06:00;97006.84;;;9.91;100.00
5284;BME280;15377;48.540;9.268;2023-04-21T09:08:26;97005.19;;;10.14;100.00
5284;BME280;15377;48.540;9.268;2023-04-21T09:10:53;97004.00;;;10.35;100.00
5284;BME280;15377;48.540;9.268;2023-04-21T09:13:19;97013.72;;;10.50;100.00
5284;BME280;15377;48.540;9.268;2023-04-21T09:15:50;97020.63;;;10.60;100.00
5284;BME280;15377;48.540;9.268;2023-04-21T09:18:20;97017.84;;;10.80;100.00
5284;BME280;15377;48.540;9.268;2023-04-21T09:20:48;97014.34;;;10.99;100.00
5284;BME280;15377;48.540;9.268;2023-04-21T09:23:13;97009.84;;;11.22;100.00
5284;BME280;15377;48.540;9.268;2023-04-21T09:25:40;97014.47;;;11.36;100.00
5284;BME280;15377;48.540;9.268;2023-04-21T09:28:10;97017.09;;;11.45;100.00
5284;BME280;15377;48.540;9.268;2023-04-21T09:30:37;97011.06;;;11.66;100.00
5284;BME280;15377;48.540;9.268;2023-04-21T09:33:04;97002.78;;;11.97;100.00
5284;BME280;15377;48.540;9.268;2023-04-21T09:35:36;97003.28;;;12.38;100.00
5284;BME280;15377;48.540;9.268;2023-04-21T09:38:10;97006.25;;;13.35;100.00
5284;BME280;15377;48.540;9.268;2023-04-21T09:40:36;96993.09;;;15.24;100.00
5284;BME280;15377;48.540;9.268;2023-04-21T09:43:02;96999.94;;;16.57;100.00
5284;BME280;15377;48.540;9.268;2023-04-21T09:45:28;96999.66;;;17.77;100.00
5284;BME280;15377;48.540;9.268;2023-04-21T09:47:55;97001.19;;;18.80;100.00
5284;BME280;15377;48.540;9.268;2023-04-21T09:50:22;96993.06;;;19.88;95.46
5284;BME280;15377;48.540;9.268;2023-04-21T09:52:50;96990.94;;;20.42;90.12
5284;BME280;15377;48.540;9.268;2023-04-21T09:55:17;96988.59;;;21.02;87.45
5284;BME280;15377;48.540;9.268;2023-04-21T09:57:43;97000.38;;;21.51;78.56
5284;BME280;15377;48.540;9.268;2023-04-21T10:00:12;97003.59;;;21.63;79.97
5284;BME280;15377;48.540;9.268;2023-04-21T10:02:43;96991.22;;;22.24;76.08
5284;BME280;15377;48.540;9.268;2023-04-21T10:05:09;96986.19;;;21.57;74.41
5284;BME280;15377;48.540;9.268;2023-04-21T10:07:36;96983.00;;;22.41;74.04
5284;BME280;15377;48.540;9.268;2023-04-21T10:10:01;96986.69;;;21.91;73.13
5284;BME280;15377;48.540;9.268;2023-04-21T10:12:27;96981.16;;;22.51;71.38
5284;BME280;15377;48.540;9.268;2023-04-21T10:14:53;96977.84;;;23.68;65.73
5284;BME280;15377;48.540;9.268;2023-04-21T10:17:33;96970.47;;;23.41;65.58
5284;BME280;15377;48.540;9.268;2023-04-21T10:20:05;96966.50;;;22.90;64.80
5284;BME280;15377;48.540;9.268;2023-04-21T10:22:32;96966.81;;;23.08;64.16
5284;BME280;15377;48.540;9.268;2023-04-21T10:25:00;96969.44;;;24.00;64.01
5284;BME280;15377;48.540;9.268;2023-04-21T10:27:34;96971.22;;;23.88;60.78
5284;BME280;15377;48.540;9.268;2023-04-21T10:29:59;96973.81;;;23.86;60.09
5284;BME280;15377;48.540;9.268;2023-04-21T10:32:41;96972.81;;;24.72;57.23
5284;BME280;15377;48.540;9.268;2023-04-21T10:35:11;96965.44;;;24.35;56.67
5284;BME280;15377;48.540;9.268;2023-04-21T10:37:39;96958.44;;;24.19;57.87
5284;BME280;15377;48.540;9.268;2023-04-21T10:40:05;96957.44;;;24.90;53.31
5284;BME280;15377;48.540;9.268;2023-04-21T10:42:34;96952.78;;;24.68;54.35
5284;BME280;15377;48.540;9.268;2023-04-21T10:45:07;96958.78;;;24.23;55.06
5284;BME280;15377;48.540;9.268;2023-04-21T10:50:24;96958.44;;;24.19;55.43
5284;BME280;15377;48.540;9.268;2023-04-21T10:55:25;96941.69;;;24.46;54.72
5284;BME280;15377;48.540;9.268;2023-04-21T10:57:51;96937.84;;;24.17;55.84
5284;BME280;15377;48.540;9.268;2023-04-21T11:00:18;96945.00;;;24.59;57.46
5284;BME280;15377;48.540;9.268;2023-04-21T11:02:52;96934.91;;;24.73;55.38
5284;BME280;15377;48.540;9.268;2023-04-21T11:05:18;96935.81;;;24.93;53.57
5284;BME280;15377;48.540;9.268;2023-04-21T11:07:44;96909.88;;;24.43;55.77
5284;BME280;15377;48.540;9.268;2023-04-21T11:10:10;96922.00;;;24.04;56.53
5284;BME280;15377;48.540;9.268;2023-04-21T11:12:39;96925.31;;;24.76;54.56
5284;BME280;15377;48.540;9.268;2023-04-21T11:15:10;96926.34;;;24.47;56.66
5284;BME280;15377;48.540;9.268;2023-04-21T11:17:36;96920.34;;;24.67;58.08
5284;BME280;15377;48.540;9.268;2023-04-21T11:20:07;96919.69;;;23.86;59.15
5284;BME280;15377;48.540;9.268;2023-04-21T11:22:35;96908.00;;;23.65;58.62
5284;BME280;15377;48.540;9.268;2023-04-21T11:25:01;96906.66;;;23.41;60.70
5284;BME280;15377;48.540;9.268;2023-04-21T11:27:28;96905.41;;;23.20;63.81
5284;BME280;15377;48.540;9.268;2023-04-21T11:29:54;96906.91;;;23.60;62.85
5284;BME280;15377;48.540;9.268;2023-04-21T11:32:20;96902.28;;;24.29;59.49
5284;BME280;15377;48.540;9.268;2023-04-21T11:34:45;96904.81;;;24.17;58.78
5284;BME280;15377;48.540;9.268;2023-04-21T11:37:20;96915.44;;;24.26;58.89
5284;BME280;15377;48.540;9.268;2023-04-21T11:39:46;96918.13;;;23.60;60.37
5284;BME280;15377;48.540;9.268;2023-04-21T11:42:19;96908.13;;;22.96;64.35
5284;BME280;15377;48.540;9.268;2023-04-21T11:44:45;96887.78;;;23.34;64.85
5284;BME280;15377;48.540;9.268;2023-04-21T11:47:14;96904.25;;;23.30;64.26
5284;BME280;15377;48.540;9.268;2023-04-21T11:49:55;96891.41;;;24.08;62.52
5284;BME280;15377;48.540;9.268;2023-04-21T11:54:58;96886.31;;;22.72;67.99
5284;BME280;15377;48.540;9.268;2023-04-21T11:57:25;96872.50;;;21.39;73.00
5284;BME280;15377;48.540;9.268;2023-04-21T11:59:51;96885.69;;;21.16;78.85
5284;BME280;15377;48.540;9.268;2023-04-21T12:02:22;96896.63;;;20.71;83.21
5284;BME280;15377;48.540;9.268;2023-04-21T12:07:31;96880.00;;;20.58;86.84
5284;BME280;15377;48.540;9.268;2023-04-21T12:09:57;96885.59;;;20.30;90.31
5284;BME280;15377;48.540;9.268;2023-04-21T12:12:23;96880.25;;;19.91;92.67
5284;BME280;15377;48.540;9.268;2023-04-21T12:14:49;96883.06;;;19.50;94.33
5284;BME280;15377;48.540;9.268;2023-04-21T12:17:15;96861.53;;;18.91;97.39
5284;BME280;15377;48.540;9.268;2023-04-21T12:19:41;96873.16;;;18.82;100.00
5284;BME280;15377;48.540;9.268;2023-04-21T12:22:14;96861.81;;;18.67;100.00
5284;BME280;15377;48.540;9.268;2023-04-21T12:24:40;96870.44;;;18.30;100.00
5284;BME280;15377;48.540;9.268;2023-04-21T12:27:07;96855.81;;;18.11;100.00
5284;BME280;15377;48.540;9.268;2023-04-21T12:29:33;96859.38;;;18.12;100.00
5284;BME280;15377;48.540;9.268;2023-04-21T12:32:06;96854.44;;;18.05;100.00
5284;BME280;15377;48.540;9.268;2023-04-21T12:34:31;96835.91;;;18.07;100.00
5284;BME280;15377;48.540;9.268;2023-04-21T12:36:57;96843.38;;;17.86;100.00
5284;BME280;15377;48.540;9.268;2023-04-21T12:39:22;96831.38;;;17.78;100.00
5284;BME280;15377;48.540;9.268;2023-04-21T12:41:48;96830.84;;;17.80;100.00
5284;BME280;15377;48.540;9.268;2023-04-21T12:44:14;96830.97;;;17.74;100.00
5284;BME280;15377;48.540;9.268;2023-04-21T12:46:39;96836.94;;;17.78;100.00
5284;BME280;15377;48.540;9.268;2023-04-21T12:49:06;96841.09;;;17.59;100.00
5284;BME280;15377;48.540;9.268;2023-04-21T12:51:33;96835.19;;;17.62;100.00
5284;BME280;15377;48.540;9.268;2023-04-21T12:53:58;96817.13;;;17.69;100.00
5284;BME280;15377;48.540;9.268;2023-04-21T12:56:24;96832.78;;;17.72;100.00
5284;BME280;15377;48.540;9.268;2023-04-21T12:58:50;96818.72;;;17.64;100.00
5284;BME280;15377;48.540;9.268;2023-04-21T13:01:15;96835.09;;;17.68;100.00
5284;BME280;15377;48.540;9.268;2023-04-21T13:03:41;96820.47;;;17.67;100.00
5284;BME280;15377;48.540;9.268;2023-04-21T13:06:07;96817.25;;;17.76;100.00
5284;BME280;15377;48.540;9.268;2023-04-21T13:08:33;96814.16;;;17.93;100.00
5284;BME280;15377;48.540;9.268;2023-04-21T13:10:58;96807.84;;;17.92;100.00
5284;BME280;15377;48.540;9.268;2023-04-21T13:13:24;96814.03;;;17.85;100.00
5284;BME280;15377;48.540;9.268;2023-04-21T13:15:50;96816.84;;;17.98;100.00
5284;BME280;15377;48.540;9.268;2023-04-21T13:18:15;96816.72;;;17.91;100.00